WIDN/TNJ METAR and TAF weather

Enter ICAO airport designator
Station Type Date Time Source
WIDN METAR 2022/11/24 08:00 UTC NOAA

WIDN 240800Z 25007KT 9999 SCT017CB 32/23 Q1008 RMK CB TO N


Station Type Date Time Source
WIDN Decoded METAR 2022/11/24 08:00 UTC NOAA

Station name not available
Nov 24, 2022 - 03:00 AM EST / 2022.11.24 0800 UTC
Wind: from the WSW (250 degrees) at 8 MPH (7 KT):0
Visibility: greater than 7 mile(s):0
Sky conditions: partly cloudy
Weather: Cumulonimbus clouds observed
Temperature: 89 F (32 C)
Heat index: 96.8 F (36.0 C):1
Dew Point: 73 F (23 C)
Relative Humidity: 59%
Pressure (altimeter): 29.77 in. Hg (1008 hPa)
ob: WIDN 240800Z 25007KT 9999 SCT017CB 32/23 Q1008 RMK CB TO N
cycle: 8

Station Type Date Time Source
WIDN TAF 2011/04/08 06:00 UTC NOAA

TAF WIDN 080500Z 0806/0818 04010KT 9000 SCT020
BECMG 35010KT

Example: see airport list